sensor_id;sensor_type;location;lat;lon;timestamp;P1;P2;P0
58740;PMS7003;44512;53.046;18.604;2023-06-14T00:05:25;7;6;5
58740;PMS7003;44512;53.046;18.604;2023-06-14T00:15:54;7;6;5
58740;PMS7003;44512;53.046;18.604;2023-06-14T00:26:22;8;7;6
58740;PMS7003;44512;53.046;18.604;2023-06-14T00:36:50;8;7;6
58740;PMS7003;44512;53.046;18.604;2023-06-14T00:47:19;7;7;6
58740;PMS7003;44512;53.046;18.604;2023-06-14T00:57:47;9;7;6
58740;PMS7003;44512;53.046;18.604;2023-06-14T01:18:44;12;11;9
58740;PMS7003;44512;53.046;18.604;2023-06-14T01:29:13;15;12;9
58740;PMS7003;44512;53.046;18.604;2023-06-14T01:39:41;13;11;9
58740;PMS7003;44512;53.046;18.604;2023-06-14T01:50:09;14;13;10
58740;PMS7003;44512;53.046;18.604;2023-06-14T02:00:37;18;14;10
58740;PMS7003;44512;53.046;18.604;2023-06-14T02:11:06;18;14;11
58740;PMS7003;44512;53.046;18.604;2023-06-14T02:21:34;14;13;11
58740;PMS7003;44512;53.046;18.604;2023-06-14T02:32:03;18;15;12
58740;PMS7003;44512;53.046;18.604;2023-06-14T02:42:31;17;15;12
58740;PMS7003;44512;53.046;18.604;2023-06-14T02:52:59;16;13;11
58740;PMS7003;44512;53.046;18.604;2023-06-14T03:03:28;17;16;11
58740;PMS7003;44512;53.046;18.604;2023-06-14T03:13:56;19;16;11
58740;PMS7003;44512;53.046;18.604;2023-06-14T03:24:24;16;15;11
58740;PMS7003;44512;53.046;18.604;2023-06-14T03:34:53;16;13;10
58740;PMS7003;44512;53.046;18.604;2023-06-14T03:45:21;17;14;11
58740;PMS7003;44512;53.046;18.604;2023-06-14T03:55:50;15;13;10
58740;PMS7003;44512;53.046;18.604;2023-06-14T04:06:18;15;14;12
58740;PMS7003;44512;53.046;18.604;2023-06-14T04:16:46;15;14;10
58740;PMS7003;44512;53.046;18.604;2023-06-14T04:27:14;15;15;11
58740;PMS7003;44512;53.046;18.604;2023-06-14T04:37:43;13;13;11
58740;PMS7003;44512;53.046;18.604;2023-06-14T04:48:11;14;13;12
58740;PMS7003;44512;53.046;18.604;2023-06-14T04:58:40;18;14;11
58740;PMS7003;44512;53.046;18.604;2023-06-14T05:09:08;15;13;11
58740;PMS7003;44512;53.046;18.604;2023-06-14T05:19:36;16;14;11
58740;PMS7003;44512;53.046;18.604;2023-06-14T05:30:05;14;12;10
58740;PMS7003;44512;53.046;18.604;2023-06-14T05:40:33;16;13;11
58740;PMS7003;44512;53.046;18.604;2023-06-14T05:51:01;18;14;12
58740;PMS7003;44512;53.046;18.604;2023-06-14T06:01:30;20;17;14
58740;PMS7003;44512;53.046;18.604;2023-06-14T06:11:58;24;20;15
58740;PMS7003;44512;53.046;18.604;2023-06-14T06:22:27;18;17;14
58740;PMS7003;44512;53.046;18.604;2023-06-14T06:32:55;24;20;16
58740;PMS7003;44512;53.046;18.604;2023-06-14T06:43:23;28;23;16
58740;PMS7003;44512;53.046;18.604;2023-06-14T06:53:55;25;23;18
58740;PMS7003;44512;53.046;18.604;2023-06-14T07:04:20;23;21;16
58740;PMS7003;44512;53.046;18.604;2023-06-14T07:14:49;28;25;19
58740;PMS7003;44512;53.046;18.604;2023-06-14T07:25:17;31;27;20
58740;PMS7003;44512;53.046;18.604;2023-06-14T07:35:45;32;27;20
58740;PMS7003;44512;53.046;18.604;2023-06-14T07:46:14;33;29;21
58740;PMS7003;44512;53.046;18.604;2023-06-14T07:56:42;22;22;18
58740;PMS7003;44512;53.046;18.604;2023-06-14T08:07:10;26;23;17
58740;PMS7003;44512;53.046;18.604;2023-06-14T08:17:39;23;22;16
58740;PMS7003;44512;53.046;18.604;2023-06-14T08:28:07;21;20;17
58740;PMS7003;44512;53.046;18.604;2023-06-14T08:38:36;24;21;15
58740;PMS7003;44512;53.046;18.604;2023-06-14T08:49:04;21;19;15
58740;PMS7003;44512;53.046;18.604;2023-06-14T08:59:32;20;18;15
58740;PMS7003;44512;53.046;18.604;2023-06-14T09:10:20;17;13;11
58740;PMS7003;44512;53.046;18.604;2023-06-14T09:20:29;14;14;13
58740;PMS7003;44512;53.046;18.604;2023-06-14T09:30:57;9;9;7
58740;PMS7003;44512;53.046;18.604;2023-06-14T09:51:54;13;10;8
58740;PMS7003;44512;53.046;18.604;2023-06-14T10:12:51;11;9;8
58740;PMS7003;44512;53.046;18.604;2023-06-14T10:23:20;9;9;8
58740;PMS7003;44512;53.046;18.604;2023-06-14T10:33:48;10;10;8
58740;PMS7003;44512;53.046;18.604;2023-06-14T11:05:15;13;12;9
58740;PMS7003;44512;53.046;18.604;2023-06-14T11:15:43;11;11;9
58740;PMS7003;44512;53.046;18.604;2023-06-14T11:26:09;13;9;7
58740;PMS7003;44512;53.046;18.604;2023-06-14T11:36:38;7;6;5
58740;PMS7003;44512;53.046;18.604;2023-06-14T11:47:06;6;5;4
58740;PMS7003;44512;53.046;18.604;2023-06-14T11:57:34;7;7;6
58740;PMS7003;44512;53.046;18.604;2023-06-14T12:08:03;9;7;6
58740;PMS7003;44512;53.046;18.604;2023-06-14T12:18:32;8;7;5
58740;PMS7003;44512;53.046;18.604;2023-06-14T12:28:59;6;5;4
58740;PMS7003;44512;53.046;18.604;2023-06-14T12:39:27;8;7;6
58740;PMS7003;44512;53.046;18.604;2023-06-14T12:49:56;8;6;5
58740;PMS7003;44512;53.046;18.604;2023-06-14T13:00:24;6;6;4
58740;PMS7003;44512;53.046;18.604;2023-06-14T13:10:53;5;4;4
58740;PMS7003;44512;53.046;18.604;2023-06-14T13:21:22;3;3;2
58740;PMS7003;44512;53.046;18.604;2023-06-14T13:31:49;6;3;3
58740;PMS7003;44512;53.046;18.604;2023-06-14T13:42:18;4;3;3
58740;PMS7003;44512;53.046;18.604;2023-06-14T13:52:46;4;3;2
58740;PMS7003;44512;53.046;18.604;2023-06-14T14:03:14;5;4;3
58740;PMS7003;44512;53.046;18.604;2023-06-14T14:13:43;4;4;3
58740;PMS7003;44512;53.046;18.604;2023-06-14T14:24:11;6;5;4
58740;PMS7003;44512;53.046;18.604;2023-06-14T14:34:39;7;5;4
58740;PMS7003;44512;53.046;18.604;2023-06-14T14:50:33;6;6;5
58740;PMS7003;44512;53.046;18.604;2023-06-14T15:01:02;6;6;5
58740;PMS7003;44512;53.046;18.604;2023-06-14T15:11:30;8;7;6
58740;PMS7003;44512;53.046;18.604;2023-06-14T15:21:58;10;9;7
58740;PMS7003;44512;53.046;18.604;2023-06-14T15:32:27;10;8;7
58740;PMS7003;44512;53.046;18.604;2023-06-14T15:42:55;10;7;6
58740;PMS7003;44512;53.046;18.604;2023-06-14T15:53:24;9;9;7
58740;PMS7003;44512;53.046;18.604;2023-06-14T16:03:52;11;10;8
58740;PMS7003;44512;53.046;18.604;2023-06-14T16:14:20;10;8;6
58740;PMS7003;44512;53.046;18.604;2023-06-14T16:24:49;12;10;8
58740;PMS7003;44512;53.046;18.604;2023-06-14T16:35:17;11;10;8
58740;PMS7003;44512;53.046;18.604;2023-06-14T16:45:45;11;11;9
58740;PMS7003;44512;53.046;18.604;2023-06-14T16:56:14;12;11;9
58740;PMS7003;44512;53.046;18.604;2023-06-14T17:06:42;12;12;9
58740;PMS7003;44512;53.046;18.604;2023-06-14T17:17:10;14;13;9
58740;PMS7003;44512;53.046;18.604;2023-06-14T17:27:39;14;11;8
58740;PMS7003;44512;53.046;18.604;2023-06-14T17:38:07;12;11;9
58740;PMS7003;44512;53.046;18.604;2023-06-14T17:48:35;14;13;10
58740;PMS7003;44512;53.046;18.604;2023-06-14T17:59:04;16;13;10
58740;PMS7003;44512;53.046;18.604;2023-06-14T18:09:32;15;14;11
58740;PMS7003;44512;53.046;18.604;2023-06-14T18:20:01;17;14;11
58740;PMS7003;44512;53.046;18.604;2023-06-14T18:30:29;19;17;12
58740;PMS7003;44512;53.046;18.604;2023-06-14T18:40:57;18;18;14
58740;PMS7003;44512;53.046;18.604;2023-06-14T18:51:26;25;20;15
58740;PMS7003;44512;53.046;18.604;2023-06-14T19:01:54;21;18;14
58740;PMS7003;44512;53.046;18.604;2023-06-14T19:12:22;18;17;13
58740;PMS7003;44512;53.046;18.604;2023-06-14T19:22:51;20;18;14
58740;PMS7003;44512;53.046;18.604;2023-06-14T19:33:19;18;16;12
58740;PMS7003;44512;53.046;18.604;2023-06-14T19:43:47;14;12;10
58740;PMS7003;44512;53.046;18.604;2023-06-14T19:54:16;12;10;8
58740;PMS7003;44512;53.046;18.604;2023-06-14T20:04:44;13;11;9
58740;PMS7003;44512;53.046;18.604;2023-06-14T20:15:13;12;9;8
58740;PMS7003;44512;53.046;18.604;2023-06-14T20:25:41;12;11;8
58740;PMS7003;44512;53.046;18.604;2023-06-14T20:36:09;13;13;10
58740;PMS7003;44512;53.046;18.604;2023-06-14T20:46:38;14;13;10
58740;PMS7003;44512;53.046;18.604;2023-06-14T20:57:06;11;10;8
58740;PMS7003;44512;53.046;18.604;2023-06-14T21:07:34;8;7;6
58740;PMS7003;44512;53.046;18.604;2023-06-14T21:18:03;10;9;6
58740;PMS7003;44512;53.046;18.604;2023-06-14T21:28:31;8;7;5
58740;PMS7003;44512;53.046;18.604;2023-06-14T21:38:59;6;5;5
58740;PMS7003;44512;53.046;18.604;2023-06-14T21:49:28;7;6;5
58740;PMS7003;44512;53.046;18.604;2023-06-14T21:59:56;6;5;5
58740;PMS7003;44512;53.046;18.604;2023-06-14T22:10:25;6;5;4
58740;PMS7003;44512;53.046;18.604;2023-06-14T22:20:53;7;6;4
58740;PMS7003;44512;53.046;18.604;2023-06-14T22:31:21;6;4;3
58740;PMS7003;44512;53.046;18.604;2023-06-14T22:41:49;9;7;6
58740;PMS7003;44512;53.046;18.604;2023-06-14T22:52:18;9;8;7
58740;PMS7003;44512;53.046;18.604;2023-06-14T23:02:46;12;10;8
58740;PMS7003;44512;53.046;18.604;2023-06-14T23:13:15;12;11;9
58740;PMS7003;44512;53.046;18.604;2023-06-14T23:23:43;17;11;9
58740;PMS7003;44512;53.046;18.604;2023-06-14T23:34:11;14;13;11
58740;PMS7003;44512;53.046;18.604;2023-06-14T23:44:40;19;16;13
58740;PMS7003;44512;53.046;18.604;2023-06-14T23:55:09;21;18;14
